createdAt,value
2019-06-15T00:00:12.582Z,9.00
2019-06-15T00:02:43.579Z,8.95
2019-06-15T00:05:12.991Z,9.10
2019-06-15T00:07:42.364Z,8.70
2019-06-15T00:10:11.895Z,8.38
2019-06-15T00:12:41.260Z,9.08
2019-06-15T00:15:10.903Z,9.10
2019-06-15T00:17:40.256Z,8.25
2019-06-15T00:20:10.194Z,9.63
2019-06-15T00:22:39.561Z,9.90
2019-06-15T00:25:09.768Z,9.85
2019-06-15T00:27:39.140Z,10.95
2019-06-15T00:30:10.383Z,10.45
2019-06-15T00:32:39.774Z,11.00
2019-06-15T00:35:09.681Z,10.88
2019-06-15T00:37:39.090Z,12.73
2019-06-15T00:40:10.309Z,12.63
2019-06-15T00:42:39.698Z,12.60
2019-06-15T00:45:10.877Z,15.23
2019-06-15T00:47:40.272Z,16.10
2019-06-15T00:50:10.571Z,17.15
2019-06-15T00:52:39.977Z,18.77
2019-06-15T00:55:09.553Z,20.23
2019-06-15T00:57:39.072Z,21.48
2019-06-15T01:00:09.101Z,21.07
2019-06-15T01:02:38.494Z,22.35
2019-06-15T01:05:08.804Z,22.55
2019-06-15T01:07:38.199Z,24.75
2019-06-15T01:10:09.019Z,25.57
2019-06-15T01:12:38.443Z,25.48
2019-06-15T01:15:09.157Z,27.30
2019-06-15T01:17:38.611Z,27.50
2019-06-15T01:20:09.249Z,27.40
2019-06-15T01:22:38.629Z,26.85
2019-06-15T01:25:10.552Z,25.50
2019-06-15T01:27:40.481Z,30.05
2019-06-15T01:30:11.315Z,31.90
2019-06-15T01:32:40.669Z,27.30
2019-06-15T01:35:10.487Z,30.68
2019-06-15T01:37:39.874Z,28.80
2019-06-15T01:40:10.099Z,29.67
2019-06-15T01:42:39.485Z,29.42
2019-06-15T01:45:09.026Z,26.57
2019-06-15T01:47:38.413Z,31.27
2019-06-15T01:50:09.340Z,29.48
2019-06-15T01:52:38.810Z,33.05
2019-06-15T01:55:20.611Z,30.90
2019-06-15T01:57:39.840Z,27.98
2019-06-15T02:00:11.339Z,27.13
2019-06-15T02:02:40.754Z,26.33
2019-06-15T02:05:10.185Z,25.05
2019-06-15T02:07:39.552Z,27.90
2019-06-15T02:10:09.269Z,28.92
2019-06-15T02:12:38.660Z,26.02
2019-06-15T02:15:08.796Z,27.90
2019-06-15T02:17:38.181Z,24.85
2019-06-15T02:20:08.382Z,25.77
2019-06-15T02:22:37.786Z,22.90
2019-06-15T02:25:07.690Z,23.50
2019-06-15T02:27:37.216Z,25.15
2019-06-15T02:30:09.154Z,26.90
2019-06-15T02:32:38.522Z,24.63
2019-06-15T02:35:08.121Z,27.20
2019-06-15T02:37:37.496Z,26.57
2019-06-15T02:40:07.687Z,25.50
2019-06-15T02:42:38.118Z,25.30
2019-06-15T02:45:07.840Z,27.73
2019-06-15T02:47:37.197Z,37.40
2019-06-15T02:50:07.733Z,39.67
2019-06-15T02:52:37.352Z,39.80
2019-06-15T02:55:09.835Z,49.03
2019-06-15T02:57:39.226Z,48.75
2019-06-15T03:00:09.655Z,55.25
2019-06-15T03:02:39.031Z,65.52
2019-06-15T03:05:09.148Z,66.57
2019-06-15T03:07:38.948Z,51.30
2019-06-15T03:10:08.870Z,51.85
2019-06-15T03:12:39.290Z,60.45
2019-06-15T03:15:10.556Z,48.35
2019-06-15T03:17:39.924Z,54.03
2019-06-15T03:20:09.451Z,50.30
2019-06-15T03:22:38.821Z,53.60
2019-06-15T03:25:13.537Z,53.05
2019-06-15T03:27:42.926Z,46.02
2019-06-15T03:30:12.463Z,51.65
2019-06-15T03:32:41.856Z,39.92
2019-06-15T03:35:13.369Z,43.38
2019-06-15T03:37:42.742Z,41.90
2019-06-15T03:40:13.073Z,43.02
2019-06-15T03:42:42.495Z,45.25
2019-06-15T03:45:12.722Z,52.00
2019-06-15T03:47:42.093Z,46.08
2019-06-15T03:50:12.102Z,42.40
2019-06-15T03:52:41.504Z,48.45
2019-06-15T03:55:11.829Z,43.63
2019-06-15T03:57:41.225Z,40.43
2019-06-15T04:00:19.800Z,47.83
2019-06-15T04:02:49.165Z,43.02
2019-06-15T04:05:18.539Z,42.60
2019-06-15T04:07:47.914Z,47.87
2019-06-15T04:10:17.360Z,50.40
2019-06-15T04:12:46.751Z,48.60
2019-06-15T04:15:16.194Z,50.92
2019-06-15T04:17:45.581Z,47.23
2019-06-15T04:20:15.065Z,50.55
2019-06-15T04:22:44.424Z,49.18
2019-06-15T04:25:14.357Z,50.08
2019-06-15T04:27:43.748Z,48.08
2019-06-15T04:30:13.252Z,45.58
2019-06-15T04:32:42.652Z,46.15
2019-06-15T04:35:12.172Z,51.90
2019-06-15T04:37:41.576Z,45.67
2019-06-15T04:40:11.241Z,50.95
2019-06-15T04:42:40.623Z,44.03
2019-06-15T04:45:10.312Z,43.17
2019-06-15T04:47:39.692Z,46.80
2019-06-15T04:50:10.197Z,44.25
2019-06-15T04:52:39.571Z,49.63
2019-06-15T04:55:09.297Z,42.60
2019-06-15T04:57:38.671Z,44.38
2019-06-15T05:00:10.950Z,39.80
2019-06-15T05:02:40.580Z,45.17
2019-06-15T05:05:11.559Z,38.28
2019-06-15T05:07:40.940Z,40.17
2019-06-15T05:10:12.038Z,37.53
2019-06-15T05:12:41.440Z,33.28
2019-06-15T05:15:11.058Z,41.27
2019-06-15T05:17:40.435Z,41.02
2019-06-15T05:20:10.270Z,34.33
2019-06-15T05:22:39.671Z,39.65
2019-06-15T05:25:09.374Z,34.27
2019-06-15T05:27:38.749Z,36.75
2019-06-15T05:30:09.802Z,35.78
2019-06-15T05:32:39.206Z,33.38
2019-06-15T05:35:08.913Z,32.35
2019-06-15T05:37:38.307Z,31.73
2019-06-15T05:40:08.975Z,34.98
2019-06-15T05:42:38.430Z,34.25
2019-06-15T05:45:08.144Z,35.70
2019-06-15T05:47:37.510Z,34.03
2019-06-15T05:50:08.958Z,33.55
2019-06-15T05:52:38.345Z,37.40
2019-06-15T05:55:08.431Z,32.25
2019-06-15T05:57:37.780Z,33.50
2019-06-15T06:00:13.099Z,33.30
2019-06-15T06:02:42.483Z,33.98
2019-06-15T06:05:13.666Z,34.88
2019-06-15T06:07:43.042Z,32.42
2019-06-15T06:10:12.852Z,30.27
2019-06-15T06:12:42.268Z,33.60
2019-06-15T06:15:12.988Z,28.42
2019-06-15T06:17:42.529Z,29.25
2019-06-15T06:20:12.584Z,26.65
2019-06-15T06:22:41.997Z,29.98
2019-06-15T06:25:11.602Z,26.68
2019-06-15T06:27:41.708Z,22.55
2019-06-15T06:30:11.943Z,23.98
2019-06-15T06:32:41.325Z,23.27
2019-06-15T06:35:10.885Z,22.80
2019-06-15T06:37:40.253Z,21.27
2019-06-15T06:40:11.266Z,19.95
2019-06-15T06:42:41.720Z,23.10
2019-06-15T06:45:13.212Z,22.05
2019-06-15T06:47:42.575Z,16.40
2019-06-15T06:50:12.650Z,16.67
2019-06-15T06:52:42.032Z,15.23
2019-06-15T06:55:11.653Z,14.83
2019-06-15T06:57:51.690Z,12.55
2019-06-15T07:00:12.886Z,14.15
2019-06-15T07:02:42.262Z,14.18
2019-06-15T07:05:12.093Z,11.22
2019-06-15T07:07:41.499Z,11.80
2019-06-15T07:10:11.628Z,11.68
2019-06-15T07:12:41.010Z,11.80
2019-06-15T07:15:10.546Z,9.53
2019-06-15T07:17:39.959Z,11.10
2019-06-15T07:20:09.573Z,10.85
2019-06-15T07:22:38.946Z,11.45
2019-06-15T07:25:08.455Z,7.47
2019-06-15T07:27:37.836Z,6.67
2019-06-15T07:30:10.271Z,6.47
2019-06-15T07:32:39.854Z,6.70
2019-06-15T07:35:09.976Z,6.17
2019-06-15T07:37:40.298Z,6.20
2019-06-15T07:40:09.894Z,6.20
2019-06-15T07:42:39.714Z,6.00
2019-06-15T07:45:09.599Z,5.55
2019-06-15T07:47:38.995Z,5.45
2019-06-15T07:50:08.552Z,5.50
2019-06-15T07:52:37.970Z,5.97
2019-06-15T07:55:10.508Z,5.37
2019-06-15T07:57:39.891Z,5.50
2019-06-15T08:00:11.187Z,5.25
2019-06-15T08:02:40.592Z,5.00
2019-06-15T08:05:10.102Z,4.72
2019-06-15T08:07:39.521Z,4.70
2019-06-15T08:10:09.017Z,5.28
2019-06-15T08:12:38.413Z,19.40
2019-06-15T08:15:10.430Z,5.08
2019-06-15T08:17:39.781Z,4.95
2019-06-15T08:20:10.670Z,4.58
2019-06-15T08:22:40.125Z,4.95
2019-06-15T08:25:10.731Z,7.35
2019-06-15T08:27:40.281Z,8.83
2019-06-15T08:30:10.950Z,11.57
2019-06-15T08:32:40.303Z,12.35
2019-06-15T08:35:10.203Z,12.63
2019-06-15T08:37:39.572Z,15.78
2019-06-15T08:40:09.748Z,15.43
2019-06-15T08:42:39.103Z,17.23
2019-06-15T08:45:08.954Z,16.60
2019-06-15T08:47:38.356Z,15.63
2019-06-15T08:50:08.660Z,15.23
2019-06-15T08:52:38.057Z,14.80
2019-06-15T08:55:07.622Z,14.55
2019-06-15T08:57:40.180Z,14.65
2019-06-15T09:00:09.074Z,12.82
2019-06-15T09:02:38.474Z,11.78
2019-06-15T09:05:08.611Z,10.98
2019-06-15T09:07:37.996Z,8.73
2019-06-15T09:10:09.147Z,8.00
2019-06-15T09:12:38.548Z,7.45
2019-06-15T09:15:09.325Z,6.60
2019-06-15T09:17:38.784Z,5.95
2019-06-15T09:20:09.968Z,5.25
2019-06-15T09:22:39.344Z,4.62
2019-06-15T09:25:09.046Z,4.10
2019-06-15T09:27:38.448Z,4.03
2019-06-15T09:30:08.645Z,3.80
2019-06-15T09:32:38.048Z,3.42
2019-06-15T09:35:07.624Z,2.80
2019-06-15T09:37:37.968Z,2.75
2019-06-15T09:40:08.762Z,2.90
2019-06-15T09:42:38.114Z,2.70
2019-06-15T09:45:08.627Z,2.90
2019-06-15T09:47:38.146Z,2.72
2019-06-15T09:50:07.978Z,2.60
2019-06-15T09:52:37.454Z,2.40
2019-06-15T09:55:10.195Z,2.87
2019-06-15T09:57:39.502Z,2.52
2019-06-15T10:00:10.718Z,2.30
2019-06-15T10:02:40.138Z,3.05
2019-06-15T10:05:09.943Z,3.70
2019-06-15T10:07:39.316Z,3.60
2019-06-15T10:10:09.322Z,3.70
2019-06-15T10:12:38.695Z,2.70
2019-06-15T10:15:09.324Z,2.42
2019-06-15T10:17:38.700Z,2.50
2019-06-15T10:20:09.102Z,2.10
2019-06-15T10:22:38.484Z,2.10
2019-06-15T10:25:09.097Z,2.45
2019-06-15T10:27:38.454Z,1.90
2019-06-15T10:30:09.243Z,1.70
2019-06-15T10:32:38.610Z,1.40
2019-06-15T10:35:08.287Z,1.40
2019-06-15T10:37:37.623Z,1.32
2019-06-15T10:40:07.968Z,1.37
2019-06-15T10:42:37.341Z,1.50
2019-06-15T10:45:07.547Z,1.30
2019-06-15T10:47:37.034Z,1.75
2019-06-15T10:50:08.041Z,1.37
2019-06-15T10:52:37.488Z,1.40
2019-06-15T10:55:08.413Z,3.02
2019-06-15T10:57:37.823Z,2.42
2019-06-15T11:00:12.648Z,1.65
2019-06-15T11:02:41.993Z,1.77
2019-06-15T11:05:14.399Z,1.90
2019-06-15T11:07:43.791Z,2.10
2019-06-15T11:10:15.503Z,1.57
2019-06-15T11:12:46.579Z,1.65
2019-06-15T11:15:15.997Z,1.92
2019-06-15T11:17:45.462Z,2.12
2019-06-15T11:20:15.954Z,1.90
2019-06-15T11:22:45.417Z,2.30
2019-06-15T11:25:14.799Z,2.20
2019-06-15T11:27:44.194Z,2.25
2019-06-15T11:30:14.717Z,1.82
2019-06-15T11:32:44.135Z,1.72
2019-06-15T11:35:13.876Z,2.15
2019-06-15T11:37:43.259Z,2.00
2019-06-15T11:40:12.958Z,1.90
2019-06-15T11:42:42.326Z,1.98
2019-06-15T11:45:11.863Z,2.10
2019-06-15T11:47:41.242Z,2.10
2019-06-15T11:50:12.039Z,2.05
2019-06-15T11:52:41.611Z,2.30
2019-06-15T11:55:11.105Z,2.22
2019-06-15T11:57:40.469Z,2.20
2019-06-15T12:00:10.476Z,2.33
2019-06-15T12:02:39.840Z,2.30
2019-06-15T12:05:09.267Z,1.90
2019-06-15T12:07:38.637Z,1.95
2019-06-15T12:10:08.768Z,2.30
2019-06-15T12:12:38.166Z,2.10
2019-06-15T12:15:07.992Z,2.30
2019-06-15T12:17:37.350Z,3.52
2019-06-15T12:20:06.884Z,9.93
2019-06-15T12:22:36.254Z,2.20
2019-06-15T12:25:06.913Z,2.25
2019-06-15T12:27:36.279Z,2.10
2019-06-15T12:30:11.087Z,2.10
2019-06-15T12:32:40.470Z,1.95
2019-06-15T12:35:10.578Z,2.00
2019-06-15T12:37:39.944Z,1.82
2019-06-15T12:40:11.029Z,2.27
2019-06-15T12:42:40.395Z,2.30
2019-06-15T12:45:09.928Z,2.10
2019-06-15T12:47:39.279Z,2.40
2019-06-15T12:50:08.658Z,2.35
2019-06-15T12:52:38.062Z,2.35
2019-06-15T12:55:08.550Z,2.10
2019-06-15T12:57:37.910Z,2.67
2019-06-15T13:00:08.224Z,2.33
2019-06-15T13:02:37.590Z,2.02
2019-06-15T13:05:08.173Z,1.92
2019-06-15T13:07:37.729Z,1.87
2019-06-15T13:10:07.891Z,1.77
2019-06-15T13:12:38.393Z,2.08
2019-06-15T13:15:08.096Z,1.85
2019-06-15T13:17:37.469Z,2.60
2019-06-15T13:20:08.398Z,2.08
2019-06-15T13:22:37.773Z,2.72
2019-06-15T13:25:08.657Z,6.30
2019-06-15T13:27:38.121Z,1.92
2019-06-15T13:30:10.339Z,2.15
2019-06-15T13:32:39.749Z,2.00
2019-06-15T13:35:09.835Z,2.40
2019-06-15T13:37:42.443Z,1.98
2019-06-15T13:40:10.848Z,2.25
2019-06-15T13:42:40.213Z,1.90
2019-06-15T13:45:10.346Z,2.30
2019-06-15T13:47:39.702Z,2.30
2019-06-15T13:50:09.439Z,2.45
2019-06-15T13:52:38.980Z,2.33
2019-06-15T13:55:08.694Z,2.60
2019-06-15T13:57:38.063Z,2.35
2019-06-15T14:00:08.863Z,2.27
2019-06-15T14:02:38.222Z,2.58
2019-06-15T14:05:07.865Z,2.60
2019-06-15T14:07:37.227Z,2.55
2019-06-15T14:10:06.978Z,2.50
2019-06-15T14:12:36.295Z,2.27
2019-06-15T14:15:07.623Z,2.50
2019-06-15T14:17:39.802Z,2.75
2019-06-15T14:20:08.870Z,2.80
2019-06-15T14:22:38.242Z,2.37
2019-06-15T14:25:08.818Z,2.62
2019-06-15T14:27:38.169Z,2.90
2019-06-15T14:30:10.002Z,3.10
2019-06-15T14:32:39.330Z,2.40
2019-06-15T14:35:09.049Z,2.85
2019-06-15T14:37:38.407Z,3.00
2019-06-15T14:40:08.443Z,2.62
2019-06-15T14:42:37.855Z,2.85
2019-06-15T14:45:08.135Z,2.72
2019-06-15T14:47:37.496Z,2.50
2019-06-15T14:50:07.287Z,2.62
2019-06-15T14:52:36.769Z,2.45
2019-06-15T14:55:07.273Z,2.47
2019-06-15T14:57:36.820Z,2.52
2019-06-15T15:00:08.750Z,2.67
2019-06-15T15:02:37.943Z,2.20
2019-06-15T15:05:07.753Z,2.60
2019-06-15T15:07:37.156Z,2.67
2019-06-15T15:10:11.042Z,2.40
2019-06-15T15:12:41.741Z,2.75
2019-06-15T15:15:12.674Z,2.33
2019-06-15T15:17:42.065Z,2.70
2019-06-15T15:20:12.477Z,2.55
2019-06-15T15:22:41.860Z,39.67
2019-06-15T15:25:11.769Z,3.60
2019-06-15T15:27:41.146Z,2.40
2019-06-15T15:30:11.153Z,2.42
2019-06-15T15:32:40.531Z,2.52
2019-06-15T15:35:09.954Z,2.30
2019-06-15T15:37:39.324Z,2.77
2019-06-15T15:40:09.106Z,2.37
2019-06-15T15:42:38.488Z,2.22
2019-06-15T15:45:07.987Z,2.60
2019-06-15T15:47:37.347Z,2.27
2019-06-15T15:50:07.690Z,2.90
2019-06-15T15:52:37.636Z,2.27
2019-06-15T15:55:08.287Z,2.02
2019-06-15T15:57:37.660Z,2.40
2019-06-15T16:00:07.776Z,2.87
2019-06-15T16:02:48.205Z,2.70
2019-06-15T16:05:09.369Z,2.25
2019-06-15T16:07:38.831Z,2.62
2019-06-15T16:10:08.664Z,2.58
2019-06-15T16:12:38.049Z,2.58
2019-06-15T16:15:08.082Z,2.30
2019-06-15T16:17:37.559Z,2.55
2019-06-15T16:20:09.920Z,2.40
2019-06-15T16:22:39.301Z,2.75
2019-06-15T16:25:08.747Z,2.62
2019-06-15T16:27:38.099Z,3.50
2019-06-15T16:30:08.705Z,2.70
2019-06-15T16:32:39.064Z,2.92
2019-06-15T16:35:08.975Z,3.00
2019-06-15T16:37:38.374Z,2.80
2019-06-15T16:40:09.626Z,2.60
2019-06-15T16:42:39.105Z,2.27
2019-06-15T16:45:08.616Z,2.67
2019-06-15T16:47:37.999Z,2.87
2019-06-15T16:50:07.775Z,2.67
2019-06-15T16:52:37.142Z,2.10
2019-06-15T16:55:10.932Z,2.47
2019-06-15T16:57:39.107Z,2.70
2019-06-15T17:00:14.024Z,2.80
2019-06-15T17:02:43.477Z,2.27
2019-06-15T17:05:12.825Z,2.47
2019-06-15T17:07:42.214Z,2.77
2019-06-15T17:10:11.756Z,2.92
2019-06-15T17:12:41.116Z,2.42
2019-06-15T17:15:11.521Z,2.70
2019-06-15T17:17:40.905Z,2.77
2019-06-15T17:20:11.089Z,2.52
2019-06-15T17:22:40.471Z,3.08
2019-06-15T17:25:11.240Z,3.08
2019-06-15T17:27:40.623Z,2.42
2019-06-15T17:30:09.974Z,2.77
2019-06-15T17:32:39.338Z,2.45
2019-06-15T17:35:08.695Z,2.70
2019-06-15T17:37:39.013Z,2.92
2019-06-15T17:40:08.706Z,2.80
2019-06-15T17:42:38.103Z,3.10
2019-06-15T17:45:07.622Z,3.33
2019-06-15T17:47:36.974Z,3.10
2019-06-15T17:50:07.446Z,3.72
2019-06-15T17:52:37.025Z,14.95
2019-06-15T17:55:07.692Z,4.62
2019-06-15T17:57:37.193Z,3.60
2019-06-15T18:00:11.354Z,3.52
2019-06-15T18:02:40.716Z,2.90
2019-06-15T18:05:10.215Z,3.40
2019-06-15T18:07:39.570Z,3.77
2019-06-15T18:10:09.493Z,2.92
2019-06-15T18:12:38.897Z,3.12
2019-06-15T18:15:09.801Z,2.65
2019-06-15T18:17:39.191Z,3.12
2019-06-15T18:20:08.662Z,2.70
2019-06-15T18:22:38.063Z,2.65
2019-06-15T18:25:07.585Z,2.95
2019-06-15T18:27:37.397Z,2.87
2019-06-15T18:30:07.732Z,3.20
2019-06-15T18:32:37.876Z,3.17
2019-06-15T18:35:07.429Z,3.20
2019-06-15T18:37:37.385Z,3.17
2019-06-15T18:40:07.323Z,3.00
2019-06-15T18:42:37.123Z,3.58
2019-06-15T18:45:07.511Z,3.15
2019-06-15T18:47:37.146Z,3.60
2019-06-15T18:50:10.136Z,3.87
2019-06-15T18:52:39.482Z,4.62
2019-06-15T18:55:09.193Z,4.47
2019-06-15T18:57:38.639Z,4.12
2019-06-15T19:00:08.635Z,4.33
2019-06-15T19:02:38.027Z,3.92
2019-06-15T19:05:09.017Z,4.05
2019-06-15T19:07:38.395Z,4.10
2019-06-15T19:10:08.506Z,3.47
2019-06-15T19:12:37.860Z,3.45
2019-06-15T19:15:07.573Z,3.92
2019-06-15T19:17:37.276Z,3.58
2019-06-15T19:20:08.721Z,3.33
2019-06-15T19:22:38.096Z,3.60
2019-06-15T19:25:07.501Z,3.45
2019-06-15T19:27:48.870Z,3.60
2019-06-15T19:30:18.362Z,3.72
2019-06-15T19:32:47.770Z,3.52
2019-06-15T19:35:17.203Z,4.60
2019-06-15T19:37:47.121Z,4.33
2019-06-15T19:40:16.756Z,4.20
2019-06-15T19:42:46.829Z,4.20
2019-06-15T19:45:17.162Z,4.03
2019-06-15T19:47:47.067Z,4.40
2019-06-15T19:50:16.740Z,3.90
2019-06-15T19:52:46.251Z,4.25
2019-06-15T19:55:16.490Z,4.28
2019-06-15T19:57:46.504Z,4.50
2019-06-15T20:00:17.148Z,4.37
2019-06-15T20:02:48.103Z,3.87
2019-06-15T20:05:17.737Z,4.87
2019-06-15T20:07:47.149Z,4.05
2019-06-15T20:10:18.747Z,4.37
2019-06-15T20:12:48.163Z,3.87
2019-06-15T20:15:17.820Z,11.05
2019-06-15T20:17:47.191Z,5.87
2019-06-15T20:20:17.104Z,4.60
2019-06-15T20:22:46.848Z,4.28
2019-06-15T20:25:16.252Z,4.75
2019-06-15T20:27:47.159Z,5.03
2019-06-15T20:30:18.407Z,4.78
2019-06-15T20:32:47.779Z,4.67
2019-06-15T20:35:21.125Z,7.58
2019-06-15T20:37:48.278Z,9.73
2019-06-15T20:40:19.094Z,8.60
2019-06-15T20:42:48.485Z,7.90
2019-06-15T20:45:18.105Z,7.35
2019-06-15T20:47:48.017Z,7.95
2019-06-15T20:50:27.529Z,7.53
2019-06-15T20:52:48.552Z,8.20
2019-06-15T20:55:17.955Z,8.05
2019-06-15T20:57:49.865Z,8.73
2019-06-15T21:00:18.540Z,8.23
2019-06-15T21:02:47.916Z,9.18
2019-06-15T21:05:33.557Z,10.63
2019-06-15T21:07:48.721Z,10.70
2019-06-15T21:10:18.400Z,9.98
2019-06-15T21:12:47.757Z,10.48
2019-06-15T21:15:17.586Z,10.78
2019-06-15T21:17:46.931Z,10.72
2019-06-15T21:20:18.040Z,12.23
2019-06-15T21:22:47.399Z,12.13
2019-06-15T21:25:17.511Z,12.03
2019-06-15T21:27:47.424Z,12.28
2019-06-15T21:30:18.495Z,12.50
2019-06-15T21:32:48.820Z,12.93
2019-06-15T21:35:18.207Z,17.25
2019-06-15T21:37:47.576Z,20.45
2019-06-15T21:40:18.497Z,19.35
2019-06-15T21:42:48.173Z,19.80
2019-06-15T21:45:17.622Z,19.40
2019-06-15T21:47:47.053Z,18.15
2019-06-15T21:50:16.689Z,20.88
2019-06-15T21:52:46.092Z,18.90
2019-06-15T21:55:16.051Z,16.07
2019-06-15T21:57:45.535Z,15.53
2019-06-15T22:00:18.554Z,15.40
2019-06-15T22:02:49.553Z,16.07
2019-06-15T22:05:18.904Z,17.90
2019-06-15T22:07:48.277Z,16.75
2019-06-15T22:10:19.045Z,16.17
2019-06-15T22:12:48.443Z,15.20
2019-06-15T22:15:17.917Z,16.00
2019-06-15T22:17:48.038Z,15.78
2019-06-15T22:20:17.807Z,17.55
2019-06-15T22:22:47.262Z,16.15
2019-06-15T22:25:16.972Z,15.68
2019-06-15T22:27:46.905Z,15.88
2019-06-15T22:30:17.874Z,15.72
2019-06-15T22:32:47.459Z,14.03
2019-06-15T22:35:16.941Z,15.03
2019-06-15T22:37:46.765Z,14.95
2019-06-15T22:40:16.683Z,15.53
2019-06-15T22:42:47.037Z,15.32
2019-06-15T22:45:17.187Z,15.43
2019-06-15T22:47:46.911Z,16.53
2019-06-15T22:50:16.341Z,15.58
2019-06-15T22:52:47.338Z,15.98
2019-06-15T22:55:16.816Z,15.28
2019-06-15T22:57:46.317Z,14.47
2019-06-15T23:00:17.125Z,14.33
2019-06-15T23:02:46.644Z,14.45
2019-06-15T23:05:17.181Z,13.40
2019-06-15T23:07:47.344Z,15.93
2019-06-15T23:10:16.942Z,13.72
2019-06-15T23:12:46.531Z,13.60
2019-06-15T23:15:17.425Z,13.80
2019-06-15T23:17:47.012Z,13.30
2019-06-15T23:20:17.311Z,14.63
2019-06-15T23:22:46.978Z,15.48
2019-06-15T23:25:17.602Z,17.40
2019-06-15T23:27:47.118Z,15.95
2019-06-15T23:30:16.704Z,16.32
2019-06-15T23:32:46.886Z,14.68
2019-06-15T23:35:19.801Z,15.20
2019-06-15T23:37:49.197Z,17.17
2019-06-15T23:40:23.602Z,17.05
2019-06-15T23:42:53.043Z,16.62
2019-06-15T23:45:23.066Z,17.02
2019-06-15T23:47:52.437Z,15.93
2019-06-15T23:50:23.144Z,16.60
2019-06-15T23:52:52.517Z,15.75
2019-06-15T23:55:21.901Z,16.05
2019-06-15T23:57:51.276Z,15.78
